Time;durP1;ratioP1;P1;durP2;ratioP2;P2;SDS_P1;SDS_P2;PMS_P1;PMS_P2;Temp;Humidity;BMP_temperature;BMP_pressure;BME280_temperature;BME280_humidity;BME280_pressure;Samples;Min_cycle;Max_cycle;Signal;HPM_P1;HPM_P2
2022/11/27 00:01:27;;;;;;;42.28;26.98;;;;;;;-1.00;100.00;93969.56;5091467;28;20048;-72
2022/11/27 00:03:55;;;;;;;44.30;26.75;;;;;;;-0.99;100.00;93965.28;5091050;28;20048;-73
2022/11/27 00:06:24;;;;;;;45.50;28.40;;;;;;;-1.03;100.00;93969.00;5091428;28;20048;-73
2022/11/27 00:08:51;;;;;;;44.70;27.15;;;;;;;-1.02;100.00;93966.34;5091452;28;20048;-73
2022/11/27 00:11:20;;;;;;;47.85;30.00;;;;;;;-1.06;100.00;93972.56;5091179;28;20052;-72
2022/11/27 00:13:47;;;;;;;45.20;27.98;;;;;;;-1.10;100.00;93961.88;5090836;28;20048;-72
2022/11/27 00:16:15;;;;;;;45.90;28.63;;;;;;;-1.06;100.00;93971.75;5091187;28;20048;-73
2022/11/27 00:18:43;;;;;;;47.10;28.58;;;;;;;-1.07;100.00;93970.94;5091119;28;20048;-72
2022/11/27 00:21:12;;;;;;;46.78;29.45;;;;;;;-1.13;100.00;93966.38;5090872;28;20052;-72
2022/11/27 00:23:39;;;;;;;46.58;28.63;;;;;;;-1.16;100.00;93969.16;5090660;28;20075;-73
2022/11/27 00:26:07;;;;;;;50.63;30.05;;;;;;;-1.18;100.00;93974.31;5073185;28;20457;-72
2022/11/27 00:28:35;;;;;;;51.78;31.02;;;;;;;-1.20;100.00;93968.59;5089384;28;20105;-72
2022/11/27 00:31:03;;;;;;;56.38;33.90;;;;;;;-1.18;100.00;93973.50;5090502;28;20051;-72
2022/11/27 00:33:30;;;;;;;60.08;33.72;;;;;;;-1.23;100.00;93964.59;5090414;28;20489;-73
2022/11/27 00:36:02;;;;;;;53.85;33.55;;;;;;;-1.16;100.00;93969.16;5090600;28;20044;-73
2022/11/27 00:38:28;;;;;;;54.97;34.05;;;;;;;-1.05;100.00;93974.16;5090228;28;20097;-73
2022/11/27 00:40:58;;;;;;;51.33;30.88;;;;;;;-1.03;100.00;93964.75;5090566;28;20390;-72
2022/11/27 00:43:25;;;;;;;49.03;29.65;;;;;;;-0.99;100.00;93968.63;5090475;28;20459;-72
2022/11/27 00:45:52;;;;;;;51.33;30.70;;;;;;;-0.95;100.00;93972.53;5090454;28;20056;-73
2022/11/27 00:48:19;;;;;;;53.60;32.60;;;;;;;-0.89;100.00;93975.47;5090427;28;20083;-72
2022/11/27 00:50:45;;;;;;;48.47;27.67;;;;;;;-0.88;100.00;93972.81;5090203;28;20117;-73
2022/11/27 00:53:13;;;;;;;52.72;30.30;;;;;;;-0.83;100.00;93980.03;5089820;28;20098;-72
2022/11/27 00:55:40;;;;;;;44.60;28.70;;;;;;;-0.80;100.00;93979.78;5089925;28;20047;-72
2022/11/27 00:58:07;;;;;;;47.47;29.65;;;;;;;-0.74;100.00;93976.00;5089632;28;20505;-73
2022/11/27 01:00:33;;;;;;;47.70;28.67;;;;;;;-0.70;100.00;93978.16;5089879;28;20040;-73
2022/11/27 01:03:00;;;;;;;45.72;27.58;;;;;;;-0.70;100.00;93985.72;5090537;28;20048;-72
2022/11/27 01:05:27;;;;;;;43.25;27.35;;;;;;;-0.66;100.00;93980.44;5089296;28;20570;-72
2022/11/27 01:07:53;;;;;;;46.85;26.80;;;;;;;-0.65;100.00;93977.00;5089969;28;20109;-72
2022/11/27 01:10:21;;;;;;;43.35;26.92;;;;;;;-0.62;100.00;93971.69;5090039;28;20056;-73
2022/11/27 01:12:49;;;;;;;44.80;26.67;;;;;;;-0.59;100.00;93976.50;5089798;28;20044;-73
2022/11/27 01:15:16;;;;;;;47.25;28.95;;;;;;;-0.58;100.00;93965.47;5089922;28;20131;-73
2022/11/27 01:17:42;;;;;;;43.95;27.77;;;;;;;-0.56;100.00;93969.47;5090065;28;20051;-73
2022/11/27 01:20:10;;;;;;;48.22;28.77;;;;;;;-0.56;100.00;93968.66;5076395;28;20081;-73
2022/11/27 01:22:37;;;;;;;44.47;28.10;;;;;;;-0.53;100.00;93968.44;5090154;28;20056;-73
2022/11/27 01:25:04;;;;;;;45.15;28.05;;;;;;;-0.50;100.00;93968.19;5089503;28;20101;-73
2022/11/27 01:27:32;;;;;;;47.25;28.40;;;;;;;-0.45;100.00;93960.25;5089533;28;20052;-72
2022/11/27 01:29:59;;;;;;;50.63;29.30;;;;;;;-0.45;100.00;93966.13;5089228;28;20096;-73
2022/11/27 01:32:28;;;;;;;44.38;27.83;;;;;;;-0.42;100.00;93952.41;5089584;28;20191;-73
2022/11/27 01:34:55;;;;;;;48.15;28.75;;;;;;;-0.40;100.00;93950.59;5089826;28;20076;-73
2022/11/27 01:37:22;;;;;;;47.33;27.33;;;;;;;-0.36;100.00;93951.94;5089438;28;20048;-73
2022/11/27 01:39:48;;;;;;;55.22;32.78;;;;;;;-0.33;100.00;93946.63;5089675;28;20097;-73
2022/11/27 01:42:15;;;;;;;55.47;32.72;;;;;;;-0.32;100.00;93947.44;5089488;28;20048;-73
2022/11/27 01:44:53;;;;;;;58.20;32.92;;;;;;;-0.31;100.00;93938.94;5089270;28;20044;-73
2022/11/27 01:47:34;;;;;;;60.22;33.65;;;;;;;-0.29;100.00;93942.94;5089274;28;20493;-74
2022/11/27 01:50:08;;;;;;;60.85;35.08;;;;;;;-0.30;100.00;93933.78;5089564;28;20117;-74
2022/11/27 01:52:39;;;;;;;57.85;34.20;;;;;;;-0.29;100.00;93939.59;5089529;28;20044;-74
2022/11/27 01:55:10;;;;;;;59.78;35.45;;;;;;;-0.31;100.00;93928.84;5089250;28;20510;-74
2022/11/27 01:57:43;;;;;;;56.53;35.08;;;;;;;-0.28;100.00;93934.44;5089078;28;20497;-74
2022/11/27 02:00:14;;;;;;;56.85;35.20;;;;;;;-0.26;100.00;93941.91;5089578;28;20370;-74
2022/11/27 02:02:41;;;;;;;53.97;36.03;;;;;;;-0.22;100.00;93943.25;5089182;28;20093;-73
2022/11/27 02:05:09;;;;;;;54.00;34.65;;;;;;;-0.21;100.00;93944.84;5088983;28;20052;-73
2022/11/27 02:07:36;;;;;;;54.72;32.20;;;;;;;-0.21;100.00;93942.31;5089321;28;20411;-74
2022/11/27 02:10:05;;;;;;;54.42;31.70;;;;;;;-0.19;100.00;93945.50;5089376;28;20097;-74
2022/11/27 02:12:39;;;;;;;46.63;27.42;;;;;;;-0.23;100.00;93943.38;5089335;28;20040;-74
2022/11/27 02:15:10;;;;;;;48.00;27.40;;;;;;;-0.18;100.00;93943.81;5089201;28;20399;-74
2022/11/27 02:17:47;;;;;;;47.08;28.02;;;;;;;-0.32;100.00;93927.25;5092430;28;20578;-73
2022/11/27 02:20:27;;;;;;;43.05;25.10;;;;;;;-0.25;100.00;93935.09;5093256;28;20130;-73
2022/11/27 02:23:25;;;;;;;40.72;23.95;;;;;;;-0.20;100.00;93951.50;5093376;28;20048;-73
2022/11/27 02:26:17;;;;;;;36.85;23.10;;;;;;;-0.21;100.00;93941.50;5071674;28;20501;-73
2022/11/27 02:29:10;;;;;;;35.40;22.42;;;;;;;-0.19;100.00;93942.19;5093195;28;20485;-73
2022/11/27 02:31:44;;;;;;;37.97;24.65;;;;;;;-0.19;100.00;93940.47;5065947;28;20157;-73
2022/11/27 02:34:23;;;;;;;37.65;23.38;;;;;;;-0.17;100.00;93938.63;5092855;28;20044;-73
2022/11/27 02:36:55;;;;;;;43.13;24.52;;;;;;;-0.17;100.00;93941.16;5092629;28;20135;-73
2022/11/27 02:39:27;;;;;;;40.00;23.25;;;;;;;-0.16;100.00;93947.00;5093077;28;20157;-73
2022/11/27 02:41:59;;;;;;;39.65;25.42;;;;;;;-0.21;100.00;93949.09;5093045;28;20125;-73
2022/11/27 02:44:32;;;;;;;37.05;23.25;;;;;;;-0.29;100.00;93937.91;5093077;28;20052;-74
2022/11/27 02:46:59;;;;;;;41.38;26.33;;;;;;;-0.25;100.00;93947.72;5092668;28;20116;-73
2022/11/27 02:49:27;;;;;;;53.58;32.17;;;;;;;-0.49;100.00;93928.59;5092309;28;20048;-73
2022/11/27 02:51:57;;;;;;;50.20;33.40;;;;;;;-0.43;100.00;93938.19;5092360;28;20064;-73
2022/11/27 02:54:28;;;;;;;55.67;33.22;;;;;;;-0.37;100.00;93937.69;5092211;28;20582;-74
2022/11/27 02:56:57;;;;;;;55.72;31.65;;;;;;;-0.29;100.00;93948.00;5092288;28;20051;-74
2022/11/27 02:59:29;;;;;;;52.28;32.25;;;;;;;-0.35;100.00;93930.81;5092645;28;20093;-73
2022/11/27 03:02:00;;;;;;;54.45;31.88;;;;;;;-0.32;100.00;93932.31;5092462;28;20052;-73
2022/11/27 03:04:33;;;;;;;59.03;33.05;;;;;;;-0.24;100.00;93939.25;5092389;28;20467;-74
2022/11/27 03:07:04;;;;;;;53.72;32.38;;;;;;;-0.21;100.00;93947.38;5092455;28;20098;-74
2022/11/27 03:09:35;;;;;;;49.30;29.85;;;;;;;-0.22;100.00;93944.97;5092525;28;20113;-74
2022/11/27 03:12:03;;;;;;;52.88;31.63;;;;;;;-0.18;100.00;93953.91;5092343;28;20059;-74
2022/11/27 03:14:32;;;;;;;53.03;32.08;;;;;;;-0.18;100.00;93954.69;5092472;28;20044;-74
2022/11/27 03:17:06;;;;;;;59.10;33.83;;;;;;;-0.18;100.00;93956.41;5092516;28;20101;-73
2022/11/27 03:19:43;;;;;;;50.50;31.95;;;;;;;-0.16;100.00;93957.09;5092275;28;20048;-73
2022/11/27 03:22:10;;;;;;;54.65;32.58;;;;;;;-0.13;100.00;93954.31;5091836;28;20058;-73
2022/11/27 03:24:37;;;;;;;54.90;31.00;;;;;;;-0.11;100.00;93949.94;5091940;28;20134;-73
2022/11/27 03:27:05;;;;;;;60.17;33.03;;;;;;;-0.07;100.00;93956.34;5080280;28;20052;-73
2022/11/27 03:29:37;;;;;;;64.00;35.78;;;;;;;-0.23;100.00;93958.53;5071776;28;20452;-73
2022/11/27 03:32:05;;;;;;;50.20;32.63;;;;;;;-0.21;100.00;93947.38;5071901;28;20106;-73
2022/11/27 03:34:31;;;;;;;51.47;30.85;;;;;;;-0.07;100.00;93953.81;5078431;28;20048;-73
2022/11/27 03:36:58;;;;;;;59.17;34.05;;;;;;;-0.02;100.00;93950.91;5091862;28;20421;-74
2022/11/27 03:39:26;;;;;;;54.60;32.60;;;;;;;0.02;100.00;93946.41;5091681;28;20652;-74
2022/11/27 03:42:05;;;;;;;54.00;33.85;;;;;;;0.04;100.00;93944.56;5091798;28;20088;-73
2022/11/27 03:44:42;;;;;;;53.60;33.13;;;;;;;0.09;100.00;93950.81;5091837;28;20522;-73
2022/11/27 03:47:14;;;;;;;57.72;34.10;;;;;;;0.11;100.00;93951.50;5091495;28;20101;-73
2022/11/27 03:49:55;;;;;;;51.33;32.30;;;;;;;0.11;100.00;93951.50;5091488;28;20097;-73
2022/11/27 03:52:31;;;;;;;46.10;28.80;;;;;;;0.04;100.00;93947.09;5091265;28;20633;-74
2022/11/27 03:55:05;;;;;;;58.60;33.25;;;;;;;0.08;100.00;93951.75;5091569;28;20047;-74
2022/11/27 03:57:37;;;;;;;61.15;38.70;;;;;;;0.09;100.00;93943.25;5091342;28;20077;-74
2022/11/27 04:00:08;;;;;;;60.90;38.50;;;;;;;0.05;100.00;93946.94;5091411;28;20060;-74
2022/11/27 04:02:41;;;;;;;59.30;35.58;;;;;;;0.00;100.00;93933.91;5090945;28;20036;-73
2022/11/27 04:05:09;;;;;;;53.90;32.10;;;;;;;0.05;100.00;93943.63;5091232;28;20105;-74
2022/11/27 04:07:36;;;;;;;52.45;31.92;;;;;;;0.09;100.00;93942.47;5091124;28;20066;-74
2022/11/27 04:10:04;;;;;;;42.35;26.55;;;;;;;-0.01;100.00;93937.34;5090983;28;20101;-74
2022/11/27 04:12:30;;;;;;;40.47;26.15;;;;;;;-0.01;100.00;93933.09;5097509;28;20124;-75
2022/11/27 04:14:57;;;;;;;43.40;27.92;;;;;;;-0.03;100.00;93926.59;5111658;28;20063;-75
2022/11/27 04:17:26;;;;;;;43.97;27.08;;;;;;;-0.01;100.00;93927.25;5111379;28;20128;-75
2022/11/27 04:19:52;;;;;;;38.30;24.30;;;;;;;-0.10;100.00;93921.22;5111001;28;20096;-74
2022/11/27 04:22:19;;;;;;;38.97;26.45;;;;;;;-0.19;100.00;93910.16;5110968;28;20471;-75
2022/11/27 04:24:46;;;;;;;41.00;26.77;;;;;;;-0.05;100.00;93924.19;5110951;28;20043;-74
2022/11/27 04:27:13;;;;;;;37.25;24.60;;;;;;;0.00;100.00;93928.88;5111202;28;20443;-73
2022/11/27 04:29:39;;;;;;;41.08;26.70;;;;;;;0.07;100.00;93944.28;5111204;28;20130;-74
2022/11/27 04:32:06;;;;;;;42.03;26.50;;;;;;;0.09;100.00;93955.88;5110794;28;20502;-74
2022/11/27 04:34:34;;;;;;;41.88;26.95;;;;;;;0.11;100.00;93953.22;5082794;28;20051;-74
2022/11/27 04:37:01;;;;;;;42.17;27.85;;;;;;;0.12;100.00;93949.75;5111155;28;20051;-74
2022/11/27 04:39:28;;;;;;;41.80;26.73;;;;;;;0.16;100.00;93943.53;5105458;28;20036;-74
2022/11/27 04:41:55;;;;;;;43.33;27.10;;;;;;;0.19;100.00;93945.78;5101498;28;20077;-74
2022/11/27 04:44:21;;;;;;;43.05;26.52;;;;;;;0.23;100.00;93952.19;5110927;27;20054;-74
2022/11/27 04:46:48;;;;;;;43.58;28.15;;;;;;;0.29;100.00;93960.19;5082208;28;20060;-74
2022/11/27 04:49:15;;;;;;;42.47;26.83;;;;;;;0.25;100.00;93955.41;5082399;28;20593;-74
2022/11/27 04:51:44;;;;;;;41.35;26.17;;;;;;;0.39;100.00;93951.75;5084009;28;20418;-74
2022/11/27 04:54:11;;;;;;;42.35;27.05;;;;;;;0.41;100.00;93949.06;5101532;28;20076;-75
2022/11/27 04:56:38;;;;;;;38.60;24.38;;;;;;;0.32;100.00;93947.31;5090542;28;20051;-74
2022/11/27 04:59:04;;;;;;;39.50;24.90;;;;;;;0.37;100.00;93943.47;5110508;28;20043;-74
2022/11/27 05:01:31;;;;;;;43.65;27.35;;;;;;;0.31;100.00;93946.50;5086506;28;20079;-74
2022/11/27 05:03:58;;;;;;;43.53;27.50;;;;;;;0.30;100.00;93944.91;5106460;28;20051;-75
2022/11/27 05:06:25;;;;;;;41.30;26.38;;;;;;;0.36;100.00;93954.50;5088500;28;20053;-75
2022/11/27 05:08:58;;;;;;;38.58;24.20;;;;;;;0.34;100.00;93950.50;5101277;28;20052;-75
2022/11/27 05:11:25;;;;;;;39.97;25.38;;;;;;;0.35;100.00;93950.38;5078927;28;20048;-74
2022/11/27 05:14:13;;;;;;;40.65;26.17;;;;;;;0.40;100.00;93939.88;5103996;28;20577;-74
2022/11/27 05:16:38;;;;;;;34.10;23.27;;;;;;;0.36;100.00;93943.59;5084056;28;20048;-74
2022/11/27 05:19:05;;;;;;;35.30;22.73;;;;;;;0.27;100.00;93957.78;5107857;28;20455;-74
2022/11/27 05:21:31;;;;;;;32.33;21.23;;;;;;;0.28;100.00;93953.56;5086965;28;20105;-74
2022/11/27 05:24:00;;;;;;;36.28;23.02;;;;;;;0.29;100.00;93955.97;5085491;28;20044;-73
2022/11/27 05:26:26;;;;;;;33.95;22.00;;;;;;;0.21;100.00;93966.69;5085480;28;20052;-74
2022/11/27 05:28:53;;;;;;;34.35;21.65;;;;;;;0.16;100.00;93962.94;5104935;28;20047;-74
2022/11/27 05:31:20;;;;;;;29.35;19.40;;;;;;;0.18;100.00;93966.16;5083743;28;20128;-74
2022/11/27 05:33:46;;;;;;;30.92;20.73;;;;;;;0.13;100.00;93964.00;5100758;28;20044;-74
2022/11/27 05:36:13;;;;;;;35.08;19.10;;;;;;;0.17;100.00;93969.59;5097719;28;20105;-74
2022/11/27 05:38:40;;;;;;;28.20;19.58;;;;;;;0.18;100.00;93972.00;5082504;28;20047;-74
2022/11/27 05:41:08;;;;;;;29.48;19.88;;;;;;;0.05;100.00;93957.03;5109451;28;20047;-74
2022/11/27 05:43:35;;;;;;;30.67;19.60;;;;;;;-0.05;100.00;93951.97;5109233;28;20040;-74
2022/11/27 05:46:05;;;;;;;71.05;40.05;;;;;;;-0.07;100.00;93963.91;5098851;28;20044;-75
2022/11/27 05:48:31;;;;;;;36.22;23.58;;;;;;;-0.12;100.00;93960.97;5107278;28;20566;-73
2022/11/27 05:50:58;;;;;;;35.65;22.08;;;;;;;-0.06;100.00;93968.03;5112348;28;20047;-73
2022/11/27 05:53:25;;;;;;;31.33;20.15;;;;;;;-0.01;100.00;93968.47;5112281;28;20048;-73
2022/11/27 05:55:51;;;;;;;37.95;23.13;;;;;;;0.05;100.00;93974.72;5073556;28;20113;-73
2022/11/27 05:58:19;;;;;;;30.48;21.13;;;;;;;0.16;100.00;93971.34;5075705;28;20545;-73
2022/11/27 06:00:46;;;;;;;33.17;21.52;;;;;;;0.17;100.00;93977.97;5090906;28;20040;-73
2022/11/27 06:03:13;;;;;;;36.17;23.58;;;;;;;0.18;100.00;93974.53;5078438;28;20113;-73
2022/11/27 06:05:40;;;;;;;37.15;24.23;;;;;;;0.32;100.00;93985.22;5114164;28;20059;-73
2022/11/27 06:08:07;;;;;;;35.45;23.52;;;;;;;0.35;100.00;93980.72;5113573;28;20105;-73
2022/11/27 06:10:34;;;;;;;37.75;23.90;;;;;;;0.31;100.00;93971.78;5109922;28;20055;-73
2022/11/27 06:13:00;;;;;;;34.67;22.55;;;;;;;0.43;100.00;93976.75;5079830;28;20076;-73
2022/11/27 06:15:28;;;;;;;30.92;20.38;;;;;;;0.44;100.00;93976.63;5086256;28;20574;-73
2022/11/27 06:17:55;;;;;;;35.65;23.55;;;;;;;0.32;100.00;93982.72;5113567;28;20509;-73
2022/11/27 06:20:22;;;;;;;34.05;21.92;;;;;;;0.24;100.00;93986.66;5113379;28;20088;-73
2022/11/27 06:22:49;;;;;;;34.33;22.15;;;;;;;-0.16;100.00;93937.69;5113559;28;20052;-73
2022/11/27 06:25:16;;;;;;;27.25;18.85;;;;;;;0.04;100.00;93990.03;5113244;28;20558;-74
2022/11/27 06:27:43;;;;;;;31.80;21.55;;;;;;;-0.01;100.00;93993.72;5113656;28;20051;-73
2022/11/27 06:30:11;;;;;;;32.03;19.70;;;;;;;0.00;100.00;93981.91;5105377;28;20060;-73
2022/11/27 06:32:39;;;;;;;30.70;19.67;;;;;;;0.07;100.00;93982.19;5074553;28;20102;-73
2022/11/27 06:35:07;;;;;;;30.00;19.73;;;;;;;0.06;100.00;93970.50;5113481;28;20469;-73
2022/11/27 06:37:33;;;;;;;37.00;23.45;;;;;;;0.14;100.00;93995.94;5113199;28;20497;-74
2022/11/27 06:40:00;;;;;;;28.75;18.45;;;;;;;0.17;100.00;93989.81;5113029;28;20521;-74
2022/11/27 06:42:28;;;;;;;36.78;23.27;;;;;;;0.13;100.00;93979.97;5113220;28;20055;-74
2022/11/27 06:44:55;;;;;;;40.33;23.92;;;;;;;0.18;100.00;93986.38;5113172;28;20089;-74
2022/11/27 06:47:22;;;;;;;33.55;22.13;;;;;;;0.34;100.00;93991.75;5112967;28;20052;-74
2022/11/27 06:49:50;;;;;;;32.83;20.80;;;;;;;0.48;100.00;93985.56;5112425;28;20085;-74
2022/11/27 06:52:16;;;;;;;34.47;21.75;;;;;;;0.65;100.00;93981.59;5113260;28;20044;-73
2022/11/27 06:54:43;;;;;;;34.20;21.65;;;;;;;0.80;100.00;93982.03;5094764;28;20040;-73
2022/11/27 06:57:10;;;;;;;37.30;22.83;;;;;;;0.91;100.00;93991.25;5088442;28;20106;-74
2022/11/27 06:59:36;;;;;;;34.20;21.40;;;;;;;0.91;100.00;93972.72;5072244;28;20063;-73
2022/11/27 07:02:03;;;;;;;35.88;22.25;;;;;;;1.06;100.00;93984.06;5074114;28;20048;-73
2022/11/27 07:04:30;;;;;;;32.70;20.77;;;;;;;1.08;100.00;93978.88;5071397;28;20152;-73
2022/11/27 07:06:58;;;;;;;33.45;21.60;;;;;;;0.89;100.00;93980.44;5073041;28;20044;-73
2022/11/27 07:09:25;;;;;;;34.13;20.83;;;;;;;0.93;100.00;93986.06;5071910;28;20048;-73
2022/11/27 07:11:52;;;;;;;37.22;22.08;;;;;;;0.80;100.00;93971.13;5071685;28;20117;-73
2022/11/27 07:14:18;;;;;;;39.30;24.75;;;;;;;0.69;100.00;93981.34;5071678;28;20040;-73
2022/11/27 07:16:45;;;;;;;37.03;22.55;;;;;;;0.72;100.00;93978.53;5071615;28;20089;-72
2022/11/27 07:19:13;;;;;;;37.53;24.27;;;;;;;0.70;100.00;93976.16;5071213;28;20098;-73
2022/11/27 07:21:40;;;;;;;41.40;24.92;;;;;;;0.82;100.00;93976.06;5071544;28;20048;-72
2022/11/27 07:24:09;;;;;;;47.33;28.75;;;;;;;0.95;100.00;93975.78;5070988;28;20044;-73
2022/11/27 07:26:35;;;;;;;38.47;25.10;;;;;;;0.88;100.00;93978.84;5071504;28;20078;-73
2022/11/27 07:29:02;;;;;;;39.97;23.92;;;;;;;0.82;100.00;93971.78;5109494;28;20051;-73
2022/11/27 07:31:30;;;;;;;42.33;25.70;;;;;;;0.90;100.00;93976.19;5086449;28;20041;-73
2022/11/27 07:33:57;;;;;;;38.45;24.33;;;;;;;1.02;100.00;93971.81;5075517;28;20040;-73
2022/11/27 07:36:26;;;;;;;37.10;23.25;;;;;;;0.93;100.00;93955.69;5073514;28;20118;-73
2022/11/27 07:38:53;;;;;;;40.17;25.02;;;;;;;1.04;100.00;93958.09;5071005;28;20490;-73
2022/11/27 07:41:21;;;;;;;32.92;22.35;;;;;;;1.18;100.00;93964.50;5071543;28;20044;-73
2022/11/27 07:43:48;;;;;;;37.35;23.90;;;;;;;0.97;100.00;93949.44;5103000;28;20702;-73
2022/11/27 07:46:16;;;;;;;39.38;24.90;;;;;;;1.14;100.00;93962.34;5112132;28;20101;-73
2022/11/27 07:48:43;;;;;;;39.50;24.83;;;;;;;1.26;100.00;93975.69;5111649;28;20056;-73
2022/11/27 07:51:13;;;;;;;38.63;24.27;;;;;;;1.33;100.00;93969.97;5111630;28;20048;-73
2022/11/27 07:53:41;;;;;;;43.38;26.42;;;;;;;1.40;100.00;93971.94;5106207;27;20070;-73
2022/11/27 07:56:10;;;;;;;47.13;26.00;;;;;;;1.46;100.00;93976.47;5089534;28;20459;-72
2022/11/27 07:58:38;;;;;;;40.90;25.50;;;;;;;1.42;100.00;93973.41;5111421;28;20112;-73
2022/11/27 08:01:07;;;;;;;40.83;24.13;;;;;;;1.42;100.00;93975.13;5111910;28;20047;-73
2022/11/27 08:03:34;;;;;;;39.95;24.75;;;;;;;1.27;100.00;93965.44;5107947;28;20104;-73
2022/11/27 08:06:01;;;;;;;41.22;26.77;;;;;;;1.28;100.00;93966.22;5080599;28;20043;-73
2022/11/27 08:08:27;;;;;;;46.78;28.48;;;;;;;1.12;100.00;93929.63;5110037;27;20047;-73
2022/11/27 08:10:54;;;;;;;43.90;26.90;;;;;;;1.37;100.00;93967.94;5111477;28;20447;-73
2022/11/27 08:13:21;;;;;;;42.92;26.70;;;;;;;1.50;100.00;93966.88;5081955;27;20060;-73
2022/11/27 08:15:49;;;;;;;46.38;28.35;;;;;;;1.53;100.00;93959.81;5111023;28;20043;-72
2022/11/27 08:18:15;;;;;;;43.88;27.40;;;;;;;1.65;100.00;93973.13;5111373;28;20120;-73
2022/11/27 08:20:42;;;;;;;47.47;28.48;;;;;;;1.70;100.00;93975.25;5111318;28;20112;-73
2022/11/27 08:23:09;;;;;;;43.60;26.75;;;;;;;1.76;100.00;93978.97;5110836;28;20052;-72
2022/11/27 08:25:37;;;;;;;45.72;28.85;;;;;;;1.79;100.00;93968.56;5111069;28;20459;-73
2022/11/27 08:28:04;;;;;;;50.55;29.15;;;;;;;1.79;100.00;93966.84;5111279;28;20063;-73
2022/11/27 08:30:31;;;;;;;46.58;30.33;;;;;;;1.80;100.00;93960.81;5110985;28;20051;-72
2022/11/27 08:32:59;;;;;;;46.35;29.98;;;;;;;1.68;100.00;93967.00;5106771;28;20079;-72
2022/11/27 08:35:26;;;;;;;46.17;29.38;;;;;;;1.70;100.00;93962.56;5104464;28;20577;-72
2022/11/27 08:37:53;;;;;;;50.55;31.42;;;;;;;1.62;100.00;93957.41;5110977;28;20101;-72
2022/11/27 08:40:19;;;;;;;52.95;31.77;;;;;;;1.75;100.00;93957.91;5110980;28;20104;-72
2022/11/27 08:42:46;;;;;;;54.72;33.03;;;;;;;1.84;100.00;93961.34;5110685;28;20055;-72
2022/11/27 08:45:13;;;;;;;57.40;34.20;;;;;;;1.94;100.00;93952.00;5110439;28;20080;-72
2022/11/27 08:47:41;;;;;;;84.03;49.03;;;;;;;2.03;100.00;93963.03;5110639;28;20561;-72
2022/11/27 08:50:09;;;;;;;88.60;53.83;;;;;;;2.11;100.00;93963.16;5110422;28;20493;-72
2022/11/27 08:52:36;;;;;;;69.07;42.65;;;;;;;1.90;100.00;93932.94;5110687;28;20455;-72
2022/11/27 08:55:03;;;;;;;59.70;37.92;;;;;;;1.71;100.00;93942.19;5081969;28;20048;-72
2022/11/27 08:57:30;;;;;;;50.67;32.63;;;;;;;1.79;100.00;93959.22;5110072;28;20120;-72
2022/11/27 08:59:57;;;;;;;53.15;34.08;;;;;;;1.84;100.00;93961.34;5110706;27;20047;-72
2022/11/27 09:02:23;;;;;;;48.55;31.33;;;;;;;1.92;100.00;93966.53;5110309;28;20047;-72
2022/11/27 09:04:50;;;;;;;45.00;30.13;;;;;;;1.76;100.00;93959.50;5095164;28;20089;-72
2022/11/27 09:07:18;;;;;;;46.03;29.73;;;;;;;1.77;100.00;93952.72;5096604;28;20436;-71
2022/11/27 09:09:45;;;;;;;44.13;28.95;;;;;;;1.93;100.00;93968.13;5110095;28;20055;-71
2022/11/27 09:12:12;;;;;;;50.03;31.00;;;;;;;1.98;100.00;93966.00;5110365;28;20075;-72
2022/11/27 09:14:39;;;;;;;49.45;31.35;;;;;;;1.97;100.00;93961.06;5110400;28;20051;-72
2022/11/27 09:17:06;;;;;;;43.28;28.92;;;;;;;2.04;100.00;93962.09;5095198;28;20056;-71
2022/11/27 09:19:32;;;;;;;57.03;32.83;;;;;;;2.12;100.00;93946.19;5096380;28;20047;-71
2022/11/27 09:21:59;;;;;;;51.03;33.97;;;;;;;2.11;100.00;93937.81;5098569;28;20576;-71
2022/11/27 09:24:27;;;;;;;49.05;30.30;;;;;;;2.25;100.00;93948.41;5093208;28;20047;-71
2022/11/27 09:26:54;;;;;;;48.75;30.88;;;;;;;2.24;100.00;93942.56;5110010;28;20052;-71
2022/11/27 09:29:21;;;;;;;45.67;28.65;;;;;;;2.29;100.00;93947.22;5110194;28;20096;-71
2022/11/27 09:31:49;;;;;;;46.85;29.52;;;;;;;2.23;100.00;93935.09;5082475;28;20048;-71
2022/11/27 09:34:17;;;;;;;51.10;32.05;;;;;;;2.27;100.00;93954.94;5089367;28;20048;-72
2022/11/27 09:36:44;;;;;;;46.30;29.60;;;;;;;2.24;100.00;93950.16;5078050;28;20052;-71
2022/11/27 09:39:12;;;;;;;49.63;31.60;;;;;;;2.28;100.00;93945.63;5090165;28;20063;-71
2022/11/27 09:41:51;;;;;;;49.40;30.27;;;;;;;2.23;100.00;93942.69;5086892;28;20048;-71
2022/11/27 09:44:31;;;;;;;57.08;34.03;;;;;;;2.25;100.00;93944.16;5086774;28;20546;-72
2022/11/27 09:47:07;;;;;;;52.35;33.25;;;;;;;2.23;100.00;93952.84;5088589;28;20107;-72
2022/11/27 09:49:41;;;;;;;52.40;32.13;;;;;;;2.14;100.00;93939.28;5090144;28;20425;-71
2022/11/27 09:52:13;;;;;;;60.15;35.60;;;;;;;2.04;100.00;93930.91;5082076;28;20553;-71
2022/11/27 09:54:44;;;;;;;53.35;33.25;;;;;;;2.10;100.00;93921.00;5074764;28;20057;-71
2022/11/27 09:57:16;;;;;;;53.20;34.00;;;;;;;2.16;100.00;93919.63;5106705;28;20048;-71
2022/11/27 09:59:49;;;;;;;76.43;43.90;;;;;;;1.73;100.00;93899.00;5110706;28;20123;-71
2022/11/27 10:02:18;;;;;;;70.28;40.90;;;;;;;1.63;100.00;93883.03;5109656;28;20047;-71
2022/11/27 10:04:45;;;;;;;69.75;40.40;;;;;;;1.85;100.00;93897.88;5109563;28;20097;-71
2022/11/27 10:07:22;;;;;;;53.70;32.60;;;;;;;1.77;100.00;93885.13;5109792;28;20112;-71
2022/11/27 10:10:06;;;;;;;105.03;64.45;;;;;;;1.64;100.00;93880.34;5109365;28;20494;-71
2022/11/27 10:12:48;;;;;;;55.37;33.97;;;;;;;1.76;100.00;93893.63;5108847;28;20089;-71
2022/11/27 10:15:19;;;;;;;54.28;33.60;;;;;;;1.91;100.00;93893.19;5109641;28;20051;-71
2022/11/27 10:17:52;;;;;;;56.72;35.67;;;;;;;1.95;100.00;93892.00;5109353;28;20074;-71
2022/11/27 10:20:28;;;;;;;56.30;35.63;;;;;;;2.00;100.00;93884.78;5109355;28;20058;-71
2022/11/27 10:23:01;;;;;;;58.92;36.33;;;;;;;2.03;100.00;93874.34;5109336;28;20072;-71
2022/11/27 10:25:34;;;;;;;68.25;40.90;;;;;;;2.27;100.00;93873.03;5109656;28;20055;-71
2022/11/27 10:28:13;;;;;;;66.93;40.20;;;;;;;2.48;100.00;93875.31;5109675;28;20455;-71
2022/11/27 10:30:49;;;;;;;60.45;36.53;;;;;;;2.60;100.00;93868.28;5109497;28;20081;-71
2022/11/27 10:33:22;;;;;;;58.38;34.72;;;;;;;2.64;100.00;93874.66;5102875;28;20052;-72
2022/11/27 10:35:50;;;;;;;133.02;67.75;;;;;;;2.63;100.00;93874.81;5102705;28;20413;-72
2022/11/27 10:38:20;;;;;;;58.85;34.78;;;;;;;2.61;100.00;93871.63;5084023;28;20047;-71
2022/11/27 10:40:53;;;;;;;46.50;30.38;;;;;;;2.31;100.00;93850.72;5113286;28;20047;-71
2022/11/27 10:43:24;;;;;;;50.33;31.33;;;;;;;2.38;100.00;93875.38;5112785;28;20044;-71
2022/11/27 10:45:54;;;;;;;53.17;30.75;;;;;;;2.36;100.00;93864.56;5112305;28;20505;-72
2022/11/27 10:48:21;;;;;;;52.55;33.33;;;;;;;2.45;100.00;93864.66;5112953;28;20079;-72
2022/11/27 10:50:57;;;;;;;54.53;31.35;;;;;;;2.57;100.00;93860.97;5113181;28;20048;-72
2022/11/27 10:53:28;;;;;;;55.42;32.38;;;;;;;2.80;100.00;93868.97;5111479;28;20043;-72
2022/11/27 10:56:20;;;;;;;48.13;30.90;;;;;;;2.92;100.00;93866.97;5086495;28;20493;-72
2022/11/27 10:58:57;;;;;;;125.63;59.25;;;;;;;2.48;100.00;93809.38;5108349;28;20062;-72
2022/11/27 11:01:27;;;;;;;96.13;48.17;;;;;;;2.77;100.00;93827.84;5112915;28;20043;-72
2022/11/27 11:04:05;;;;;;;70.45;39.35;;;;;;;3.21;100.00;93867.69;5082902;28;20048;-72
2022/11/27 11:06:37;;;;;;;63.38;36.60;;;;;;;3.39;100.00;93866.84;5109975;28;20245;-71
2022/11/27 11:09:12;;;;;;;65.18;38.17;;;;;;;3.52;100.00;93867.25;5112824;28;20043;-71
2022/11/27 11:11:39;;;;;;;61.10;36.28;;;;;;;3.42;100.00;93829.25;5112392;28;20092;-72
2022/11/27 11:14:17;;;;;;;63.05;36.55;;;;;;;3.59;100.00;93836.97;5112296;28;20051;-71
2022/11/27 11:16:45;;;;;;;58.17;35.42;;;;;;;3.84;100.00;93854.88;5112225;28;20097;-72
2022/11/27 11:19:23;;;;;;;57.92;36.10;;;;;;;3.92;100.00;93859.19;5112466;28;20047;-71
2022/11/27 11:21:50;;;;;;;53.72;33.90;;;;;;;3.98;100.00;93851.75;5112106;28;20096;-71
2022/11/27 11:24:24;;;;;;;58.33;35.67;;;;;;;4.09;100.00;93852.44;5112373;28;20104;-71